Time,TemperatureF,DewpointF,PressureIn,WindDirection,WindDirectionDegrees,WindSpeedMPH,WindSpeedGustMPH,Humidity,HourlyPrecipIn,Conditions,Clouds,dailyrainin,SolarRadiationWatts/m^2,SoftwareType,DateUTC
2014-01-22 00:01:00,7.4,-99.9,30.05,NW,314,8.0,12.1,82,0.00,,,0.00,0,,2014-01-22 06:01:00,
2014-01-22 00:11:00,7.1,-99.9,30.04,NW,309,5.0,8.8,82,0.00,,,0.00,0,,2014-01-22 06:11:00,
2014-01-22 00:21:00,7.2,-99.9,30.05,WNW,289,3.0,5.4,82,0.00,,,0.00,0,,2014-01-22 06:21:00,
2014-01-22 00:31:00,7.2,-99.9,30.05,NNW,331,4.0,7.1,82,0.00,,,0.00,0,,2014-01-22 06:31:00,
2014-01-22 00:41:00,7.6,-99.9,30.05,West,273,6.0,8.8,82,0.00,,,0.00,0,,2014-01-22 06:41:00,
2014-01-22 00:51:00,7.9,-99.9,30.04,WNW,300,5.0,8.8,82,0.00,,,0.00,0,,2014-01-22 06:51:00,
2014-01-22 01:01:00,8.3,-99.9,30.04,WSW,256,4.0,5.4,82,0.00,,,0.00,0,,2014-01-22 07:01:00,
2014-01-22 01:11:00,8.5,-99.9,30.03,West,280,4.0,5.4,82,0.00,,,0.00,0,,2014-01-22 07:11:00,
2014-01-22 01:21:00,8.8,-99.9,30.04,WNW,300,6.0,10.5,82,0.00,,,0.00,0,,2014-01-22 07:21:00,
2014-01-22 01:31:00,8.8,-99.9,30.02,West,261,6.0,8.8,82,0.00,,,0.00,0,,2014-01-22 07:31:00,
2014-01-22 01:41:00,8.7,-99.9,30.01,WSW,245,7.0,8.8,83,0.00,,,0.00,0,,2014-01-22 07:41:00,
2014-01-22 01:51:00,8.7,-99.9,30.00,WSW,257,7.0,10.5,83,0.00,,,0.00,0,,2014-01-22 07:51:00,
2014-01-22 02:01:00,9.1,-99.9,30.00,SW,236,9.0,12.1,83,0.00,,,0.00,0,,2014-01-22 08:01:00,
2014-01-22 02:11:00,9.7,-99.9,30.02,WNW,283,6.0,10.5,83,0.00,,,0.00,0,,2014-01-22 08:11:00,
2014-01-22 02:21:00,10.1,-99.9,30.01,WNW,282,7.0,8.8,83,0.00,,,0.00,0,,2014-01-22 08:21:00,
2014-01-22 02:31:00,10.5,-99.9,30.02,WNW,300,7.0,8.8,83,0.00,,,0.00,0,,2014-01-22 08:31:00,
2014-01-22 02:41:00,11.7,-99.9,30.01,WNW,289,7.0,12.1,83,0.00,,,0.00,0,,2014-01-22 08:41:00,
2014-01-22 02:51:00,12.1,-99.9,30.02,NW,312,3.0,7.1,83,0.00,,,0.00,0,,2014-01-22 08:51:00,
2014-01-22 03:01:00,12.7,-99.9,30.02,West,270,6.0,10.5,83,0.00,,,0.00,0,,2014-01-22 09:01:00,
2014-01-22 03:11:00,13.1,-99.9,30.02,NNE,26,7.0,12.1,83,0.00,,,0.00,0,,2014-01-22 09:11:00,
2014-01-22 03:21:00,13.1,-99.9,30.03,NNW,348,10.0,15.5,81,0.00,,,0.00,0,,2014-01-22 09:21:00,
2014-01-22 03:31:00,12.8,-99.9,30.03,NW,312,9.0,13.8,81,0.00,,,0.00,0,,2014-01-22 09:31:00,
2014-01-22 03:41:00,12.3,-99.9,30.04,NW,317,8.0,15.5,82,0.00,,,0.00,0,,2014-01-22 09:41:00,
2014-01-22 03:51:00,11.8,-99.9,30.04,North,0,10.0,17.2,83,0.00,,,0.00,0,,2014-01-22 09:51:00,
2014-01-22 04:01:00,8.2,-99.9,30.05,NNE,19,12.0,15.5,83,0.00,,,0.00,0.061,,2014-01-22 10:01:00,
2014-01-22 04:11:00,7.4,-99.9,30.07,North,349,12.0,18.9,81,0.00,,,0.00,0.003,,2014-01-22 10:11:00,
2014-01-22 04:21:00,7.2,-99.9,30.07,North,7,7.0,18.9,81,0.00,,,0.00,0,,2014-01-22 10:21:00,
2014-01-22 04:31:00,7.0,-99.9,30.08,NE,44,8.0,12.1,80,0.00,,,0.00,0.003,,2014-01-22 10:31:00,
2014-01-22 04:41:00,6.6,-99.9,30.09,North,349,11.0,20.5,81,0.00,,,0.00,0.017,,2014-01-22 10:41:00,
2014-01-22 04:51:00,6.0,-99.9,30.10,NW,311,11.0,17.2,80,0.00,,,0.00,0.003,,2014-01-22 10:51:00,
2014-01-22 05:01:00,5.2,-99.9,30.11,NNW,338,8.0,15.5,77,0.00,,,0.00,0.003,,2014-01-22 11:01:00,
2014-01-22 05:11:00,4.7,-99.9,30.11,NNE,20,12.0,18.9,77,0.00,,,0.00,0,,2014-01-22 11:11:00,
2014-01-22 05:21:00,4.1,-99.9,30.12,NNW,329,9.0,15.5,76,0.00,,,0.00,0,,2014-01-22 11:21:00,
2014-01-22 05:31:00,1.5,-99.9,30.14,North,10,10.0,13.8,83,0.00,,,0.00,0,,2014-01-22 11:31:00,
2014-01-22 05:41:00,1.0,-99.9,30.15,NNW,348,11.0,23.9,78,0.00,,,0.00,0,,2014-01-22 11:41:00,
2014-01-22 05:51:00,0.8,-99.9,30.16,North,0,11.0,20.5,78,0.00,,,0.00,0,,2014-01-22 11:51:00,
2014-01-22 06:01:00,-0.1,-99.9,30.17,North,3,10.0,17.2,81,0.00,,,0.00,0,,2014-01-22 12:01:00,
2014-01-22 06:11:00,-1.3,-99.9,30.18,North,2,12.0,23.9,74,0.00,,,0.00,0,,2014-01-22 12:11:00,
2014-01-22 06:21:00,-2.5,-99.9,30.19,North,0,9.0,13.8,74,0.00,,,0.00,0,,2014-01-22 12:21:00,
2014-01-22 06:31:00,-3.3,-99.9,30.20,North,0,11.0,20.5,76,0.00,,,0.00,0,,2014-01-22 12:31:00,
2014-01-22 06:41:00,-3.8,-99.9,30.21,NNW,332,9.0,18.9,77,0.00,,,0.00,0,,2014-01-22 12:41:00,
2014-01-22 06:51:00,-4.6,-99.9,30.22,NNE,21,11.0,22.2,78,0.00,,,0.00,0,,2014-01-22 12:51:00,
2014-01-22 07:01:00,-5.7,-99.9,30.23,NW,324,11.0,17.2,77,0.00,,,0.00,0,,2014-01-22 13:01:00,
2014-01-22 07:11:00,-6.4,-99.9,30.24,NNW,334,10.0,15.5,77,0.00,,,0.00,0,,2014-01-22 13:11:00,
2014-01-22 07:21:00,-6.8,-99.9,30.25,North,351,9.0,13.8,78,0.00,,,0.00,0,,2014-01-22 13:21:00,
2014-01-22 07:31:00,-7.2,-99.9,30.26,North,7,13.0,18.9,77,0.00,,,0.00,0,,2014-01-22 13:31:00,
2014-01-22 07:41:00,-7.4,-99.9,30.27,NNW,336,6.0,10.5,78,0.00,,,0.00,0.197,,2014-01-22 13:41:00,
2014-01-22 07:51:00,-7.6,-99.9,30.27,NW,318,11.0,15.5,78,0.00,,,0.00,0.815,,2014-01-22 13:51:00,
2014-01-22 08:01:00,-8.1,-99.9,30.28,North,0,11.0,17.2,77,0.00,,,0.00,2.533,,2014-01-22 14:01:00,
2014-01-22 08:11:00,-8.5,-99.9,30.29,NNW,328,10.0,15.5,76,0.00,,,0.00,5.648,,2014-01-22 14:11:00,
2014-01-22 08:21:00,-8.6,-99.9,30.30,North,349,11.0,15.5,76,0.00,,,0.00,11.43,,2014-01-22 14:21:00,
2014-01-22 08:31:00,-8.6,-99.9,30.31,West,261,10.0,20.5,76,0.00,,,0.00,23.97,,2014-01-22 14:31:00,
2014-01-22 08:41:00,-9.0,-99.9,30.32,North,0,9.0,13.8,76,0.00,,,0.00,24.38,,2014-01-22 14:41:00,
2014-01-22 08:51:00,-9.1,-99.9,30.32,North,351,7.0,12.1,76,0.00,,,0.00,62.28,,2014-01-22 14:51:00,
2014-01-22 09:01:00,-9.2,-99.9,30.33,NW,319,13.0,23.9,76,0.00,,,0.00,49.14,,2014-01-22 15:01:00,
2014-01-22 09:11:00,-9.6,-99.9,30.34,North,6,11.0,15.5,75,0.00,,,0.00,118.8,,2014-01-22 15:11:00,
2014-01-22 09:21:00,-9.7,-99.9,30.34,North,10,9.0,13.8,75,0.00,,,0.00,162.6,,2014-01-22 15:21:00,
2014-01-22 09:31:00,-9.6,-99.9,30.35,NW,317,12.0,18.9,75,0.00,,,0.00,172.3,,2014-01-22 15:31:00,
2014-01-22 09:41:00,-9.4,-99.9,30.36,North,11,8.0,13.8,74,0.00,,,0.00,216.6,,2014-01-22 15:41:00,
2014-01-22 09:51:00,-8.9,-99.9,30.36,NNW,329,9.0,13.8,74,0.00,,,0.00,226.4,,2014-01-22 15:51:00,
2014-01-22 10:01:00,-9.4,-99.9,30.37,NNW,335,10.0,18.9,75,0.00,,,0.00,219.3,,2014-01-22 16:01:00,
2014-01-22 10:11:00,-9.5,-99.9,30.38,NW,321,10.0,17.2,75,0.00,,,0.00,217.3,,2014-01-22 16:11:00,
2014-01-22 10:21:00,-9.5,-99.9,30.39,NNW,337,10.0,13.8,74,0.00,,,0.00,245.7,,2014-01-22 16:21:00,
2014-01-22 10:31:00,-9.5,-99.9,30.39,NW,321,9.0,12.1,75,0.00,,,0.00,275.1,,2014-01-22 16:31:00,
2014-01-22 10:41:00,-9.8,-99.9,30.40,NNW,348,12.0,17.2,74,0.00,,,0.00,283.9,,2014-01-22 16:41:00,
2014-01-22 10:51:00,-9.0,-99.9,30.40,NNW,344,10.0,15.5,73,0.00,,,0.00,339,,2014-01-22 16:51:00,
2014-01-22 11:01:00,-9.1,-99.9,30.40,North,10,9.0,15.5,73,0.00,,,0.00,363.2,,2014-01-22 17:01:00,
2014-01-22 11:11:00,-9.0,-99.9,30.40,NNW,330,11.0,17.2,73,0.00,,,0.00,346.2,,2014-01-22 17:11:00,
2014-01-22 11:21:00,-8.8,-99.9,30.41,North,350,13.0,18.9,72,0.00,,,0.00,399.1,,2014-01-22 17:21:00,
2014-01-22 11:31:00,-8.5,-99.9,30.41,NNE,17,9.0,13.8,73,0.00,,,0.00,392.4,,2014-01-22 17:31:00,
2014-01-22 11:41:00,-8.5,-99.9,30.41,NNW,343,12.0,18.9,73,0.00,,,0.00,391.5,,2014-01-22 17:41:00,
2014-01-22 11:51:00,-8.5,-99.9,30.41,NW,323,10.0,18.9,73,0.00,,,0.00,392.1,,2014-01-22 17:51:00,
2014-01-22 12:01:00,-8.4,-99.9,30.41,East,88,10.0,20.5,73,0.00,,,0.00,391.3,,2014-01-22 18:01:00,
2014-01-22 12:11:00,-8.2,-99.9,30.41,NNW,334,10.0,17.2,73,0.00,,,0.00,392.7,,2014-01-22 18:11:00,
2014-01-22 12:21:00,-8.1,-99.9,30.41,NNE,18,10.0,13.8,73,0.00,,,0.00,382.7,,2014-01-22 18:21:00,
2014-01-22 12:31:00,-7.4,-99.9,30.41,NNW,329,11.0,20.5,73,0.00,,,0.00,394.3,,2014-01-22 18:31:00,
2014-01-22 12:41:00,-7.2,-99.9,30.42,North,6,8.0,13.8,72,0.00,,,0.00,406.4,,2014-01-22 18:41:00,
2014-01-22 12:51:00,-7.1,-99.9,30.42,NNE,31,10.0,13.8,71,0.00,,,0.00,411,,2014-01-22 18:51:00,
2014-01-22 13:01:00,-7.1,-99.9,30.42,NW,315,10.0,17.2,71,0.00,,,0.00,369.4,,2014-01-22 19:01:00,
2014-01-22 13:11:00,-7.2,-99.9,30.43,NNW,346,10.0,15.5,72,0.00,,,0.00,402.7,,2014-01-22 19:11:00,
2014-01-22 13:21:00,-7.2,-99.9,30.43,NNW,327,9.0,15.5,72,0.00,,,0.00,370,,2014-01-22 19:21:00,
2014-01-22 13:31:00,-7.4,-99.9,30.43,North,0,12.0,15.5,71,0.00,,,0.00,375.2,,2014-01-22 19:31:00,
2014-01-22 13:41:00,-7.4,-99.9,30.44,NNW,328,10.0,13.8,70,0.00,,,0.00,381.9,,2014-01-22 19:41:00,
2014-01-22 13:51:00,-7.4,-99.9,30.44,NNW,336,11.0,18.9,70,0.00,,,0.00,368.5,,2014-01-22 19:51:00,
2014-01-22 14:01:00,-7.2,-99.9,30.44,North,0,9.0,15.5,71,0.00,,,0.00,349.4,,2014-01-22 20:01:00,
2014-01-22 14:11:00,-7.0,-99.9,30.44,NNE,32,12.0,18.9,72,0.00,,,0.00,335.8,,2014-01-22 20:11:00,
2014-01-22 14:21:00,-7.2,-99.9,30.44,North,6,11.0,17.2,71,0.00,,,0.00,294.2,,2014-01-22 20:21:00,
2014-01-22 14:31:00,-7.4,-99.9,30.44,WNW,292,9.0,12.1,70,0.00,,,0.00,304.9,,2014-01-22 20:31:00,
2014-01-22 14:41:00,-7.1,-99.9,30.45,NNE,12,7.0,12.1,69,0.00,,,0.00,252.3,,2014-01-22 20:41:00,
2014-01-22 14:51:00,-6.4,-99.9,30.45,NNE,23,6.0,10.5,70,0.00,,,0.00,267.9,,2014-01-22 20:51:00,
2014-01-22 15:01:00,-6.3,-99.9,30.46,North,4,8.0,13.8,69,0.00,,,0.00,247.6,,2014-01-22 21:01:00,
2014-01-22 15:11:00,-6.2,-99.9,30.47,NNW,339,9.0,15.5,68,0.00,,,0.00,227.4,,2014-01-22 21:11:00,
2014-01-22 15:21:00,-6.2,-99.9,30.47,NW,314,8.0,12.1,66,0.00,,,0.00,206.7,,2014-01-22 21:21:00,
2014-01-22 15:31:00,-6.4,-99.9,30.47,NW,320,8.0,13.8,67,0.00,,,0.00,185.7,,2014-01-22 21:31:00,
2014-01-22 15:41:00,-6.3,-99.9,30.48,North,1,7.0,10.5,68,0.00,,,0.00,136.8,,2014-01-22 21:41:00,
2014-01-22 15:51:00,-6.5,-99.9,30.48,North,9,7.0,13.8,68,0.00,,,0.00,134.8,,2014-01-22 21:51:00,
2014-01-22 16:01:00,-6.6,-99.9,30.49,NW,310,9.0,15.5,68,0.00,,,0.00,100.4,,2014-01-22 22:01:00,
2014-01-22 16:11:00,-6.7,-99.9,30.49,NNW,338,10.0,13.8,68,0.00,,,0.00,69.59,,2014-01-22 22:11:00,
2014-01-22 16:21:00,-6.6,-99.9,30.50,NW,305,7.0,12.1,68,0.00,,,0.00,56.68,,2014-01-22 22:21:00,
2014-01-22 16:31:00,-6.8,-99.9,30.50,North,3,8.0,12.1,69,0.00,,,0.00,36.46,,2014-01-22 22:31:00,
2014-01-22 16:41:00,-6.7,-99.9,30.51,NW,319,4.0,7.1,69,0.00,,,0.00,21.3,,2014-01-22 22:41:00,
2014-01-22 16:51:00,-6.7,-99.9,30.51,NW,318,8.0,12.1,70,0.00,,,0.00,16.35,,2014-01-22 22:51:00,
2014-01-22 17:01:00,-7.2,-99.9,30.52,NW,320,6.0,8.8,71,0.00,,,0.00,12.84,,2014-01-22 23:01:00,
2014-01-22 17:11:00,-7.8,-99.9,30.52,NW,317,6.0,10.5,72,0.00,,,0.00,8.49,,2014-01-22 23:11:00,
2014-01-22 17:21:00,-8.0,-99.9,30.52,NNW,335,7.0,12.1,72,0.00,,,0.00,5.06,,2014-01-22 23:21:00,
2014-01-22 17:31:00,-8.2,-99.9,30.52,NW,319,6.0,8.8,71,0.00,,,0.00,2.483,,2014-01-22 23:31:00,
2014-01-22 17:41:00,-8.3,-99.9,30.53,North,10,8.0,10.5,71,0.00,,,0.00,0.411,,2014-01-22 23:41:00,
2014-01-22 17:51:00,-8.4,-99.9,30.53,NW,317,5.0,8.8,72,0.00,,,0.00,0,,2014-01-22 23:51:00,
2014-01-22 18:01:00,-8.6,-99.9,30.53,NW,307,6.0,10.5,73,0.00,,,0.00,0,,2014-01-23 00:01:00,
2014-01-22 18:11:00,-8.5,-99.9,30.54,NW,325,7.0,10.5,72,0.00,,,0.00,0,,2014-01-23 00:11:00,
2014-01-22 18:21:00,-8.6,-99.9,30.54,NNW,344,4.0,7.1,72,0.00,,,0.00,0,,2014-01-23 00:21:00,
2014-01-22 18:31:00,-8.6,-99.9,30.54,NW,324,5.0,7.1,72,0.00,,,0.00,0,,2014-01-23 00:31:00,
2014-01-22 18:41:00,-8.7,-99.9,30.55,NNW,331,7.0,15.5,72,0.00,,,0.00,0,,2014-01-23 00:41:00,
2014-01-22 18:51:00,-8.5,-99.9,30.55,NNW,335,8.0,13.8,72,0.00,,,0.00,0,,2014-01-23 00:51:00,
2014-01-22 20:21:00,-8.9,-99.9,30.58,NNW,333,6.0,13.8,72,0.00,,,0.00,0,,2014-01-23 02:21:00,
2014-01-22 20:31:00,-9.0,-99.9,30.58,NNE,14,5.0,10.5,72,0.00,,,0.00,0,,2014-01-23 02:31:00,
2014-01-22 20:41:00,-9.2,-99.9,30.58,North,1,5.0,8.8,72,0.00,,,0.00,0,,2014-01-23 02:41:00,
2014-01-22 20:51:00,-9.4,-99.9,30.58,NW,323,7.0,10.5,72,0.00,,,0.00,0,,2014-01-23 02:51:00,
2014-01-22 21:01:00,-9.4,-99.9,30.59,NNW,331,5.0,7.1,72,0.00,,,0.00,0,,2014-01-23 03:01:00,
2014-01-22 21:11:00,-9.4,-99.9,30.59,NW,316,5.0,8.8,72,0.00,,,0.00,0,,2014-01-23 03:11:00,
2014-01-22 21:21:00,-9.5,-99.9,30.60,NNW,333,6.0,10.5,72,0.00,,,0.00,0,,2014-01-23 03:21:00,
2014-01-22 21:31:00,-9.5,-99.9,30.60,NNW,328,7.0,12.1,72,0.00,,,0.00,0,,2014-01-23 03:31:00,
2014-01-22 21:41:00,-9.6,-99.9,30.60,NW,318,6.0,10.5,72,0.00,,,0.00,0,,2014-01-23 03:41:00,
2014-01-22 21:51:00,-9.6,-99.9,30.60,North,9,6.0,10.5,72,0.00,,,0.00,0,,2014-01-23 03:51:00,
2014-01-22 22:01:00,-9.7,-99.9,30.60,NNW,336,9.0,12.1,72,0.00,,,0.00,0,,2014-01-23 04:01:00,
2014-01-22 22:11:00,-9.8,-99.9,30.60,North,7,8.0,13.8,72,0.00,,,0.00,0,,2014-01-23 04:11:00,
2014-01-22 22:21:00,-10.0,-99.9,30.60,North,349,6.0,8.8,72,0.00,,,0.00,0,,2014-01-23 04:21:00,
2014-01-22 22:31:00,-10.2,-99.9,30.60,NW,326,7.0,12.1,72,0.00,,,0.00,0,,2014-01-23 04:31:00,
2014-01-22 22:41:00,-10.3,-99.9,30.60,NNW,343,8.0,10.5,72,0.00,,,0.00,0,,2014-01-23 04:41:00,
2014-01-22 22:51:00,-10.4,-99.9,30.60,North,7,5.0,10.5,73,0.00,,,0.00,0,,2014-01-23 04:51:00,
2014-01-22 23:01:00,-10.4,-99.9,30.61,NW,325,5.0,8.8,73,0.00,,,0.00,0,,2014-01-23 05:01:00,
2014-01-22 23:11:00,-10.4,-99.9,30.61,North,11,6.0,10.5,72,0.00,,,0.00,0,,2014-01-23 05:11:00,
2014-01-22 23:21:00,-10.4,-99.9,30.61,NW,311,5.0,10.5,72,0.00,,,0.00,0,,2014-01-23 05:21:00,
2014-01-22 23:31:00,-10.6,-99.9,30.62,NW,325,3.0,7.1,72,0.00,,,0.00,0,,2014-01-23 05:31:00,
2014-01-22 23:41:00,-10.6,-99.9,30.62,West,275,4.0,7.1,72,0.00,,,0.00,0,,2014-01-23 05:41:00,
2014-01-22 23:51:00,-10.7,-99.9,30.63,NW,311,2.0,5.4,72,0.00,,,0.00,0,,2014-01-23 05:51:00,